Terminal Aerodrome Forecast
Issued by NWS Wilmington, OH

Current Version | Previous Version | Graphics & Text | Print | Product List | Glossary On
Versions: 1 2 3 4 5 6 7 8 9 10 11 12 13 14 15 16 17 18 19 20 21 22 23 24 25 26
000
FTUS41 KILN 170542
TAFDAY
TAF
KDAY 170542Z 1706/1806 VRB03KT P6SM BKN035
      TEMPO 1706/1708 BKN025
     FM171000 14005KT P6SM SCT025 BKN120
     FM171800 18009KT P6SM VCSH OVC040
     FM172100 21008KT 5SM -SN OVC012
     FM180400 26008KT P6SM BKN015=

USA.gov is the U.S. government's official web portal to all federal, state and local government web resources and services.